Time;durP1;ratioP1;P1;durP2;ratioP2;P2;SDS_P1;SDS_P2;PMS_P1;PMS_P2;Temp;Humidity;BMP_temperature;BMP_pressure;BME280_temperature;BME280_humidity;BME280_pressure;Samples;Min_cycle;Max_cycle;Signal;HPM_P1;HPM_P2
2022/09/23 00:01:41;;;;;;;;;;;;;;;10.53;79.94;101796.72;5094943;28;19916;-35
2022/09/23 00:04:06;;;;;;;;;;;;;;;10.50;80.12;101803.41;5093686;28;19969;-35
2022/09/23 00:06:31;;;;;;;;;;;;;;;10.47;79.76;101801.09;5094590;28;19923;-35
2022/09/23 00:08:56;;;;;;;;;;;;;;;10.46;80.40;101799.44;5094553;28;19923;-35
2022/09/23 00:11:23;;;;;;;;;;;;;;;10.46;80.42;101798.63;5094706;28;20419;-35
2022/09/23 00:13:50;;;;;;;;;;;;;;;10.43;80.39;101797.16;5094191;28;20041;-35
2022/09/23 00:16:16;;;;;;;;;;;;;;;10.40;80.19;101794.88;5094099;28;19920;-35
2022/09/23 00:18:41;;;;;;;;;;;;;;;10.40;80.45;101794.03;5094283;28;19939;-35
2022/09/23 00:21:09;;;;;;;;;;;;;;;10.39;80.22;101789.66;5094225;28;20349;-35
2022/09/23 00:23:35;;;;;;;;;;;;;;;10.37;80.83;101789.03;5094142;28;19916;-35
2022/09/23 00:26:01;;;;;;;;;;;;;;;10.34;80.16;101790.25;5093912;28;19939;-35
2022/09/23 00:28:27;;;;;;;;;;;;;;;10.35;80.63;101786.56;5093948;28;19927;-35
2022/09/23 00:30:52;;;;;;;;;;;;;;;10.32;80.69;101785.06;5093941;28;19920;-35
2022/09/23 00:33:18;;;;;;;;;;;;;;;10.31;80.66;101777.19;5093526;28;19967;-35
2022/09/23 00:35:43;;;;;;;;;;;;;;;10.30;80.65;101772.81;5093898;28;19916;-35
2022/09/23 00:38:08;;;;;;;;;;;;;;;10.27;80.58;101778.63;5093756;28;19927;-35
2022/09/23 00:40:35;;;;;;;;;;;;;;;10.26;80.85;101777.81;5093724;28;19969;-35
2022/09/23 00:43:00;;;;;;;;;;;;;;;10.25;81.14;101775.31;5093811;28;19916;-35
2022/09/23 00:45:27;;;;;;;;;;;;;;;10.20;80.81;101777.75;5093326;28;20311;-35
2022/09/23 00:47:53;;;;;;;;;;;;;;;10.18;80.99;101774.41;5093471;28;19948;-35
2022/09/23 00:50:25;;;;;;;;;;;;;;;10.17;81.08;101775.47;5075188;28;19939;-35
2022/09/23 00:52:51;;;;;;;;;;;;;;;10.15;81.26;101762.16;5093599;28;20346;-35
2022/09/23 00:55:22;;;;;;;;;;;;;;;10.14;81.07;101767.75;5093230;28;19947;-35
2022/09/23 00:57:48;;;;;;;;;;;;;;;10.12;81.05;101762.56;5093422;28;20390;-35
2022/09/23 01:00:13;;;;;;;;;;;;;;;10.10;81.43;101764.63;5093635;28;19916;-35
2022/09/23 01:02:38;;;;;;;;;;;;;;;10.09;81.57;101762.97;5076058;28;19989;-35
2022/09/23 01:05:05;;;;;;;;;;;;;;;10.05;81.24;101762.56;5093426;28;20379;-35
2022/09/23 01:07:30;;;;;;;;;;;;;;;10.05;81.31;101765.28;5093425;28;20232;-35
2022/09/23 01:09:57;;;;;;;;;;;;;;;10.03;81.75;101761.09;5093393;28;20015;-35
2022/09/23 01:12:41;;;;;;;;;;;;;;;10.02;81.87;101767.53;5093660;28;19922;-35
2022/09/23 01:15:13;;;;;;;;;;;;;;;9.99;81.24;101755.25;5095880;28;19955;-35
2022/09/23 01:17:44;;;;;;;;;;;;;;;10.00;81.31;101762.34;5097857;28;19916;-35
2022/09/23 01:20:30;;;;;;;;;;;;;;;9.98;80.99;101758.16;5097364;28;19924;-35
2022/09/23 01:23:07;;;;;;;;;;;;;;;9.95;81.07;101761.28;5097134;28;19920;-35
2022/09/23 01:25:41;;;;;;;;;;;;;;;9.93;81.67;101766.06;5097620;28;20274;-35
2022/09/23 01:28:24;;;;;;;;;;;;;;;9.88;81.86;101761.28;5097351;28;19923;-35
2022/09/23 01:31:13;;;;;;;;;;;;;;;9.88;81.59;101763.97;5097753;28;19996;-35
2022/09/23 01:34:02;;;;;;;;;;;;;;;9.86;81.44;101757.94;5097485;28;20037;-35
2022/09/23 01:36:30;;;;;;;;;;;;;;;9.78;81.65;101748.16;5097795;28;20263;-35
2022/09/23 01:38:58;;;;;;;;;;;;;;;9.74;81.49;101757.69;5097284;28;20505;-35
2022/09/23 01:41:30;;;;;;;;;;;;;;;9.73;81.70;101749.81;5096759;28;19916;-35
2022/09/23 01:44:02;;;;;;;;;;;;;;;9.74;81.75;101748.75;5097816;28;20265;-35
2022/09/23 01:46:33;;;;;;;;;;;;;;;9.74;81.99;101751.47;5097518;28;20260;-35
2022/09/23 01:49:08;;;;;;;;;;;;;;;9.73;82.04;101753.34;5096997;28;19924;-35
2022/09/23 01:51:37;;;;;;;;;;;;;;;9.72;81.22;101737.34;5112999;28;19920;-35
2022/09/23 01:54:05;;;;;;;;;;;;;;;9.71;81.75;101741.06;5097114;28;19990;-35
2022/09/23 01:56:37;;;;;;;;;;;;;;;9.69;81.76;101737.72;5096745;28;20024;-35
2022/09/23 01:59:13;;;;;;;;;;;;;;;9.66;82.13;101740.81;5097223;28;19920;-35
2022/09/23 02:01:39;;;;;;;;;;;;;;;9.67;81.91;101740.66;5096679;28;19920;-35
2022/09/23 02:04:08;;;;;;;;;;;;;;;9.66;81.60;101741.69;5096440;28;19916;-35
2022/09/23 02:06:44;;;;;;;;;;;;;;;9.66;82.03;101738.13;5096918;28;20003;-35
2022/09/23 02:09:17;;;;;;;;;;;;;;;9.65;81.58;101742.69;5096888;28;19923;-35
2022/09/23 02:11:44;;;;;;;;;;;;;;;9.65;81.33;101737.31;5096462;28;19923;-35
2022/09/23 02:14:20;;;;;;;;;;;;;;;9.64;82.10;101734.81;5097224;28;20005;-35
2022/09/23 02:16:50;;;;;;;;;;;;;;;9.62;82.16;101737.72;5096687;28;20346;-35
2022/09/23 02:19:25;;;;;;;;;;;;;;;9.63;82.04;101738.56;5096658;28;19920;-35
2022/09/23 02:22:04;;;;;;;;;;;;;;;9.62;82.23;101732.31;5096606;28;19961;-35
2022/09/23 02:24:30;;;;;;;;;;;;;;;9.63;82.23;101722.34;5096864;28;19923;-35
2022/09/23 02:27:07;;;;;;;;;;;;;;;9.62;82.43;101721.53;5095771;28;20394;-35
2022/09/23 02:29:41;;;;;;;;;;;;;;;9.61;82.33;101721.69;5096466;28;19952;-35
2022/09/23 02:32:07;;;;;;;;;;;;;;;9.61;81.78;101716.31;5095860;28;19916;-35
2022/09/23 02:34:38;;;;;;;;;;;;;;;9.60;82.25;101711.94;5096859;28;19969;-35
2022/09/23 02:37:22;;;;;;;;;;;;;;;9.60;82.72;101717.34;5095826;28;20019;-35
2022/09/23 02:39:57;;;;;;;;;;;;;;;9.59;82.23;101710.28;5095985;28;19916;-35
2022/09/23 02:42:29;;;;;;;;;;;;;;;9.59;82.07;101704.88;5095625;28;19916;-35
2022/09/23 02:44:54;;;;;;;;;;;;;;;9.55;82.28;101701.75;5096649;28;20268;-35
2022/09/23 02:47:22;;;;;;;;;;;;;;;9.54;82.08;101708.19;5096054;28;19916;-35
2022/09/23 02:49:48;;;;;;;;;;;;;;;9.50;82.17;101702.34;5096506;28;19958;-35
2022/09/23 02:52:13;;;;;;;;;;;;;;;9.48;82.44;101696.34;5095773;28;19924;-35
2022/09/23 02:54:39;;;;;;;;;;;;;;;9.44;83.11;101697.78;5095778;28;19998;-35
2022/09/23 02:57:05;;;;;;;;;;;;;;;9.43;82.90;101692.59;5096391;28;20011;-35
2022/09/23 02:59:32;;;;;;;;;;;;;;;9.38;82.66;101685.09;5095842;28;20353;-35
2022/09/23 03:02:16;;;;;;;;;;;;;;;9.39;82.86;101683.22;5095758;28;20395;-35
2022/09/23 03:04:57;;;;;;;;;;;;;;;9.38;82.77;101677.00;5095498;28;19917;-35
2022/09/23 03:07:22;;;;;;;;;;;;;;;9.37;82.55;101680.75;5095153;28;19928;-35
2022/09/23 03:09:47;;;;;;;;;;;;;;;9.36;82.79;101683.63;5095603;28;19918;-35
2022/09/23 03:12:24;;;;;;;;;;;;;;;9.34;82.97;101678.44;5095619;28;20313;-35
2022/09/23 03:14:57;;;;;;;;;;;;;;;9.34;82.77;101678.44;5078160;28;19935;-35
2022/09/23 03:17:24;;;;;;;;;;;;;;;9.32;82.54;101679.66;5095258;28;19923;-35
2022/09/23 03:20:00;;;;;;;;;;;;;;;9.31;82.62;101675.31;5095695;28;19923;-35
2022/09/23 03:22:25;;;;;;;;;;;;;;;9.28;82.34;101679.25;5095504;28;20291;-35
2022/09/23 03:24:51;;;;;;;;;;;;;;;9.23;82.60;101668.22;5095343;28;19916;-35
2022/09/23 03:27:18;;;;;;;;;;;;;;;9.19;82.68;101670.50;5095069;28;19927;-35
2022/09/23 03:29:46;;;;;;;;;;;;;;;9.19;82.56;101669.66;5094631;28;19916;-35
2022/09/23 03:32:13;;;;;;;;;;;;;;;9.16;82.63;101667.34;5095443;28;19916;-35
2022/09/23 03:34:40;;;;;;;;;;;;;;;9.14;83.18;101672.97;5095636;28;19916;-35
2022/09/23 03:37:06;;;;;;;;;;;;;;;9.11;83.06;101675.22;5094915;28;19924;-34
2022/09/23 03:39:40;;;;;;;;;;;;;;;9.10;83.55;101676.25;5094216;28;19916;-35
2022/09/23 03:42:08;;;;;;;;;;;;;;;9.08;82.99;101671.06;5095283;28;19920;-35
2022/09/23 03:44:38;;;;;;;;;;;;;;;9.06;83.62;101672.28;5094972;28;20005;-35
2022/09/23 03:47:03;;;;;;;;;;;;;;;9.05;83.16;101668.78;5095007;28;19916;-35
2022/09/23 03:49:32;;;;;;;;;;;;;;;9.05;83.29;101670.63;5094670;28;20265;-35
2022/09/23 03:51:59;;;;;;;;;;;;;;;9.01;83.96;101665.63;5094961;28;19985;-35
2022/09/23 03:54:24;;;;;;;;;;;;;;;9.02;83.28;101667.28;5094613;28;19923;-35
2022/09/23 03:56:49;;;;;;;;;;;;;;;9.05;83.26;101660.69;5094818;28;20416;-35
2022/09/23 03:59:15;;;;;;;;;;;;;;;9.03;83.37;101658.19;5094693;28;19959;-35
2022/09/23 04:01:41;;;;;;;;;;;;;;;9.03;83.74;101658.19;5094403;28;20253;-35
2022/09/23 04:04:07;;;;;;;;;;;;;;;9.01;83.09;101662.09;5094086;28;19985;-35
2022/09/23 04:06:32;;;;;;;;;;;;;;;8.99;83.53;101658.78;5094333;28;19917;-35
2022/09/23 04:08:58;;;;;;;;;;;;;;;8.96;83.71;101659.19;5094910;28;19934;-35
2022/09/23 04:11:23;;;;;;;;;;;;;;;8.95;83.43;101658.34;5093973;28;19920;-35
2022/09/23 04:13:48;;;;;;;;;;;;;;;8.94;83.87;101658.56;5094240;28;19920;-35
2022/09/23 04:16:14;;;;;;;;;;;;;;;8.91;83.22;101657.06;5093912;28;19922;-35
2022/09/23 04:18:39;;;;;;;;;;;;;;;8.89;83.76;101658.31;5093878;28;19916;-35
2022/09/23 04:21:04;;;;;;;;;;;;;;;8.86;84.04;101647.94;5094372;28;19934;-35
2022/09/23 04:23:30;;;;;;;;;;;;;;;8.87;84.05;101655.81;5094073;28;19928;-35
2022/09/23 04:25:55;;;;;;;;;;;;;;;8.90;84.11;101654.59;5094048;28;19916;-35
2022/09/23 04:28:20;;;;;;;;;;;;;;;8.87;83.79;101650.41;5094518;28;20279;-35
2022/09/23 04:30:47;;;;;;;;;;;;;;;8.89;84.33;101661.03;5093993;28;20287;-35
2022/09/23 04:33:13;;;;;;;;;;;;;;;8.88;84.44;101659.34;5094169;28;19923;-35
2022/09/23 04:35:39;;;;;;;;;;;;;;;8.86;83.69;101653.31;5093513;28;19920;-35
2022/09/23 04:38:04;;;;;;;;;;;;;;;8.83;84.19;101659.09;5093701;28;19917;-35
2022/09/23 04:40:30;;;;;;;;;;;;;;;8.82;84.06;101647.47;5093789;28;19916;-35
2022/09/23 04:42:55;;;;;;;;;;;;;;;8.81;84.46;101656.63;5094010;28;20015;-35
2022/09/23 04:45:20;;;;;;;;;;;;;;;8.84;84.02;101655.41;5093447;28;20303;-34
2022/09/23 04:47:45;;;;;;;;;;;;;;;8.83;83.94;101648.31;5093379;28;19923;-35
2022/09/23 04:50:11;;;;;;;;;;;;;;;8.83;84.18;101648.31;5093044;28;20380;-35
2022/09/23 04:52:36;;;;;;;;;;;;;;;8.83;84.19;101651.84;5093255;28;19916;-35
2022/09/23 04:55:01;;;;;;;;;;;;;;;8.83;84.59;101646.44;5094021;28;19960;-35
2022/09/23 04:57:27;;;;;;;;;;;;;;;8.82;84.96;101644.78;5093127;28;19920;-35
2022/09/23 04:59:54;;;;;;;;;;;;;;;8.82;85.07;101644.78;5092667;28;21533;-35
2022/09/23 05:02:20;;;;;;;;;;;;;;;8.82;84.69;101644.78;5093991;28;19963;-35
2022/09/23 05:04:45;;;;;;;;;;;;;;;8.83;84.48;101638.34;5093450;28;19916;-35
2022/09/23 05:07:11;;;;;;;;;;;;;;;8.83;84.24;101641.06;5093786;28;19999;-35
2022/09/23 05:09:37;;;;;;;;;;;;;;;8.82;85.26;101639.38;5093412;28;19924;-35
2022/09/23 05:12:02;;;;;;;;;;;;;;;8.82;84.67;101631.31;5094153;28;19963;-35
2022/09/23 05:14:27;;;;;;;;;;;;;;;8.82;85.29;101634.00;5093073;28;19951;-34
2022/09/23 05:16:53;;;;;;;;;;;;;;;8.83;85.23;101637.53;5093460;28;19945;-35
2022/09/23 05:19:18;;;;;;;;;;;;;;;8.84;84.94;101639.22;5093302;28;19939;-35
2022/09/23 05:21:43;;;;;;;;;;;;;;;8.84;85.38;101636.50;5093625;28;20383;-35
2022/09/23 05:24:10;;;;;;;;;;;;;;;8.84;84.95;101644.59;5092925;28;19916;-35
2022/09/23 05:26:36;;;;;;;;;;;;;;;8.84;85.22;101650.84;5093373;28;19924;-35
2022/09/23 05:29:01;;;;;;;;;;;;;;;8.85;85.45;101639.00;5093692;28;19916;-35
2022/09/23 05:31:27;;;;;;;;;;;;;;;8.86;85.07;101646.06;5093109;28;19916;-35
2022/09/23 05:33:57;;;;;;;;;;;;;;;8.86;85.52;101643.34;5092828;28;20391;-35
2022/09/23 05:36:23;;;;;;;;;;;;;;;8.89;85.74;101645.66;5092805;28;19955;-35
2022/09/23 05:38:52;;;;;;;;;;;;;;;8.89;85.57;101645.66;5093108;28;20397;-35
2022/09/23 05:41:19;;;;;;;;;;;;;;;8.91;85.22;101651.69;5092939;28;20394;-35
2022/09/23 05:43:44;;;;;;;;;;;;;;;8.95;85.39;101657.50;5093227;28;20007;-35
2022/09/23 05:46:11;;;;;;;;;;;;;;;8.96;85.39;101651.91;5093445;28;19947;-35
2022/09/23 05:48:37;;;;;;;;;;;;;;;8.99;86.02;101653.41;5093202;28;20383;-35
2022/09/23 05:51:02;;;;;;;;;;;;;;;9.02;85.35;101653.81;5093624;28;19962;-35
2022/09/23 05:53:28;;;;;;;;;;;;;;;9.05;86.06;101660.69;5093111;28;19931;-35
2022/09/23 05:55:54;;;;;;;;;;;;;;;9.08;85.20;101662.13;5093104;28;19924;-35
2022/09/23 05:58:20;;;;;;;;;;;;;;;9.11;85.71;101656.34;5093910;28;20030;-35
2022/09/23 06:00:45;;;;;;;;;;;;;;;9.12;85.34;101658.00;5093033;28;19924;-35
2022/09/23 06:03:12;;;;;;;;;;;;;;;9.16;85.69;101656.56;5096435;28;19970;-34
2022/09/23 06:05:37;;;;;;;;;;;;;;;9.20;85.94;101658.66;5096769;28;20361;-35
2022/09/23 06:08:02;;;;;;;;;;;;;;;9.24;85.95;101661.78;5096801;28;19916;-35
2022/09/23 06:10:27;;;;;;;;;;;;;;;9.26;85.98;101657.00;5096414;28;20330;-35
2022/09/23 06:12:52;;;;;;;;;;;;;;;9.29;85.90;101653.91;5096911;28;20011;-35
2022/09/23 06:15:18;;;;;;;;;;;;;;;9.32;85.82;101649.97;5096610;28;20364;-35
2022/09/23 06:17:43;;;;;;;;;;;;;;;9.33;85.70;101651.66;5096613;28;19961;-35
2022/09/23 06:20:08;;;;;;;;;;;;;;;9.35;85.68;101645.00;5097539;28;19923;-35
2022/09/23 06:22:34;;;;;;;;;;;;;;;9.37;85.89;101642.09;5096569;28;20291;-35
2022/09/23 06:24:59;;;;;;;;;;;;;;;9.39;86.02;101642.72;5096083;28;20015;-35
2022/09/23 06:27:24;;;;;;;;;;;;;;;9.43;86.66;101638.59;5096080;28;19920;-35
2022/09/23 06:29:51;;;;;;;;;;;;;;;9.46;86.39;101644.41;5096711;28;19927;-35
2022/09/23 06:32:16;;;;;;;;;;;;;;;9.51;86.07;101643.78;5095965;28;20016;-35
2022/09/23 06:34:44;;;;;;;;;;;;;;;9.57;86.15;101642.16;5096121;28;19963;-35
2022/09/23 06:37:09;;;;;;;;;;;;;;;9.61;85.87;101640.69;5096914;28;19916;-35
2022/09/23 06:39:34;;;;;;;;;;;;;;;9.64;85.75;101638.41;5096350;28;19927;-35
2022/09/23 06:42:00;;;;;;;;;;;;;;;9.69;85.65;101643.22;5096575;28;20010;-35
2022/09/23 06:44:27;;;;;;;;;;;;;;;9.72;86.22;101630.13;5096713;28;20011;-35
2022/09/23 06:46:52;;;;;;;;;;;;;;;9.77;85.90;101640.31;5096022;28;19923;-35
2022/09/23 06:49:19;;;;;;;;;;;;;;;9.79;86.14;101635.53;5095889;28;19916;-35
2022/09/23 06:51:44;;;;;;;;;;;;;;;9.82;85.64;101645.09;5096035;28;20368;-35
2022/09/23 06:54:09;;;;;;;;;;;;;;;9.84;86.17;101649.25;5095771;28;19916;-35
2022/09/23 06:56:35;;;;;;;;;;;;;;;9.87;86.36;101651.53;5095994;28;19924;-35
2022/09/23 06:59:00;;;;;;;;;;;;;;;9.89;86.24;101644.06;5077425;28;19920;-35
2022/09/23 07:01:25;;;;;;;;;;;;;;;9.91;86.26;101650.09;5095926;28;19954;-35
2022/09/23 07:03:50;;;;;;;;;;;;;;;9.94;86.16;101648.84;5095681;28;19916;-35
2022/09/23 07:06:16;;;;;;;;;;;;;;;10.00;85.82;101639.91;5095543;28;20011;-35
2022/09/23 07:08:42;;;;;;;;;;;;;;;10.02;87.87;101635.97;5095816;28;19947;-35
2022/09/23 07:11:10;;;;;;;;;;;;;;;10.06;86.31;101637.22;5095520;28;19923;-35
2022/09/23 07:13:35;;;;;;;;;;;;;;;10.12;86.98;101635.53;5095189;28;19926;-35
2022/09/23 07:16:01;;;;;;;;;;;;;;;10.18;86.83;101644.69;5096147;28;20015;-35
2022/09/23 07:18:28;;;;;;;;;;;;;;;10.24;86.49;101636.59;5095270;28;20287;-35
2022/09/23 07:20:56;;;;;;;;;;;;;;;10.30;86.31;101643.06;5095703;28;19961;-35
2022/09/23 07:23:22;;;;;;;;;;;;;;;10.36;86.71;101631.41;5095522;28;19916;-35
2022/09/23 07:25:50;;;;;;;;;;;;;;;10.41;86.21;101641.59;5095157;28;19916;-35
2022/09/23 07:28:15;;;;;;;;;;;;;;;10.47;86.20;101636.16;5095074;28;19920;-35
2022/09/23 07:30:43;;;;;;;;;;;;;;;10.53;86.21;101637.19;5095882;28;20000;-35
2022/09/23 07:33:08;;;;;;;;;;;;;;;10.59;86.50;101639.06;5095079;28;19941;-35
2022/09/23 07:35:37;;;;;;;;;;;;;;;10.65;86.77;101640.09;5095081;28;20011;-35
2022/09/23 07:38:02;;;;;;;;;;;;;;;10.71;86.86;101639.22;5095694;28;19922;-35
2022/09/23 07:40:28;;;;;;;;;;;;;;;10.76;86.32;101644.81;5094817;28;19916;-35
2022/09/23 07:42:54;;;;;;;;;;;;;;;10.79;87.36;101642.53;5094919;28;20295;-35
2022/09/23 07:45:19;;;;;;;;;;;;;;;10.83;86.64;101646.47;5094745;28;19916;-35
2022/09/23 07:47:45;;;;;;;;;;;;;;;10.90;86.96;101642.91;5094998;28;20292;-35
2022/09/23 07:50:13;;;;;;;;;;;;;;;10.95;86.40;101635.81;5094710;28;19916;-35
2022/09/23 07:52:38;;;;;;;;;;;;;;;11.02;86.38;101636.59;5095546;28;19923;-35
2022/09/23 07:55:04;;;;;;;;;;;;;;;11.11;85.85;101629.06;5095030;28;20087;-35
2022/09/23 07:57:30;;;;;;;;;;;;;;;11.21;86.05;101636.72;5094608;28;20007;-35
2022/09/23 07:59:55;;;;;;;;;;;;;;;11.29;85.77;101644.63;5094596;28;20454;-35
2022/09/23 08:02:20;;;;;;;;;;;;;;;11.36;85.77;101642.69;5094727;28;20394;-35
2022/09/23 08:04:45;;;;;;;;;;;;;;;11.43;85.34;101643.50;5094268;28;19916;-35
2022/09/23 08:07:11;;;;;;;;;;;;;;;11.49;85.23;101647.22;5094555;28;19927;-35
2022/09/23 08:09:40;;;;;;;;;;;;;;;11.55;85.23;101641.75;5094440;28;19931;-35
2022/09/23 08:12:06;;;;;;;;;;;;;;;11.61;85.08;101648.16;5094727;28;19916;-35
2022/09/23 08:14:31;;;;;;;;;;;;;;;11.67;85.01;101651.91;5094301;28;19923;-35
2022/09/23 08:16:57;;;;;;;;;;;;;;;11.74;84.93;101639.13;5075768;28;19916;-35
2022/09/23 08:19:22;;;;;;;;;;;;;;;11.82;84.68;101649.75;5094209;28;20271;-35
2022/09/23 08:21:48;;;;;;;;;;;;;;;11.88;84.91;101648.03;5094484;28;20352;-35
2022/09/23 08:24:15;;;;;;;;;;;;;;;11.93;84.72;101653.63;5093831;28;19916;-35
2022/09/23 08:26:41;;;;;;;;;;;;;;;11.98;85.13;101646.47;5094128;28;19916;-35
2022/09/23 08:29:08;;;;;;;;;;;;;;;12.03;84.65;101643.94;5093823;28;19916;-35
2022/09/23 08:31:34;;;;;;;;;;;;;;;12.07;84.27;101642.44;5094248;28;20054;-35
2022/09/23 08:33:59;;;;;;;;;;;;;;;12.15;84.20;101643.22;5094303;28;19967;-35
2022/09/23 08:36:25;;;;;;;;;;;;;;;12.24;84.07;101644.59;5094477;28;20271;-35
2022/09/23 08:38:51;;;;;;;;;;;;;;;12.32;83.97;101641.59;5094412;28;19955;-35
2022/09/23 08:41:45;;;;;;;;;;;;;;;12.41;83.64;101640.28;5093577;28;19961;-35
2022/09/23 08:44:29;;;;;;;;;;;;;;;12.49;83.46;101642.69;5031935;28;19940;-35
2022/09/23 08:47:06;;;;;;;;;;;;;;;12.55;83.21;101647.22;5031312;28;20294;-35
2022/09/23 08:49:35;;;;;;;;;;;;;;;12.62;82.81;101644.44;5031698;28;20008;-35
2022/09/23 08:52:05;;;;;;;;;;;;;;;12.69;82.77;101638.91;5031083;28;19960;-35
2022/09/23 08:54:30;;;;;;;;;;;;;;;12.76;82.59;101645.94;5031278;28;19917;-35
2022/09/23 08:56:58;;;;;;;;;;;;;;;12.85;82.38;101641.88;5031198;28;19924;-35
2022/09/23 08:59:30;;;;;;;;;;;;;;;12.94;82.15;101636.16;5031134;28;19925;-35
2022/09/23 09:01:59;;;;;;;;;;;;;;;13.04;82.12;101634.56;5031598;28;19921;-35
2022/09/23 09:04:34;;;;;;;;;;;;;;;13.12;80.93;101625.25;5031001;28;20253;-36
2022/09/23 09:07:19;;;;;;;;;;;;;;;13.18;80.78;101632.50;5030977;28;19985;-33
2022/09/23 09:10:03;;;;;;;;;;;;;;;13.27;81.36;101628.41;5031538;28;20020;-34
2022/09/23 09:12:37;;;;;;;;;;;;;;;13.39;81.12;101626.59;5031387;28;20048;-35
2022/09/23 09:15:07;;;;;;;;;;;;;;;13.49;79.59;101628.75;5031395;28;19917;-34
2022/09/23 09:17:35;;;;;;;;;;;;;;;13.61;79.73;101626.06;5031446;28;20370;-34
2022/09/23 09:20:06;;;;;;;;;;;;;;;13.73;79.96;101615.22;5047912;28;19916;-34
2022/09/23 09:22:56;;;;;;;;;;;;;;;13.89;80.05;101626.25;5093459;28;19916;-34
2022/09/23 09:25:36;;;;;;;;;;;;;;;14.01;79.49;101623.56;5085541;28;20392;-34
2022/09/23 09:28:03;;;;;;;;;;;;;;;14.15;79.52;101619.56;5094155;28;20008;-35
2022/09/23 09:30:28;;;;;;;;;;;;;;;14.29;79.47;101622.00;5094197;28;19992;-34
2022/09/23 09:32:58;;;;;;;;;;;;;;;14.41;78.89;101620.13;5093324;28;19985;-34
2022/09/23 09:35:35;;;;;;;;;;;;;;;14.48;75.77;101614.59;5093608;28;19927;-34
2022/09/23 09:38:01;;;;;;;;;;;;;;;14.55;75.81;101613.41;5097302;28;19977;-34
2022/09/23 09:40:26;;;;;;;;;;;;;;;14.63;76.15;101612.19;5097136;28;19916;-34
2022/09/23 09:42:51;;;;;;;;;;;;;;;14.72;75.28;101612.66;5097898;28;19916;-34
2022/09/23 09:45:20;;;;;;;;;;;;;;;14.84;76.40;101610.75;5097577;28;19928;-34
2022/09/23 09:48:04;;;;;;;;;;;;;;;14.91;75.25;101611.44;5097916;28;19920;-34
2022/09/23 09:50:40;;;;;;;;;;;;;;;14.96;74.68;101597.91;5097023;28;20288;-34
2022/09/23 09:53:34;;;;;;;;;;;;;;;15.01;74.89;101605.38;5097807;28;19970;-34
2022/09/23 09:56:02;;;;;;;;;;;;;;;15.11;75.28;101605.56;5095013;28;19922;-35
2022/09/23 09:58:31;;;;;;;;;;;;;;;15.17;74.30;101608.13;5096627;28;19920;-34
2022/09/23 10:00:57;;;;;;;;;;;;;;;15.27;74.87;101601.22;5096520;28;19916;-34
2022/09/23 10:03:43;;;;;;;;;;;;;;;15.38;73.76;101609.38;5096807;28;19923;-34
2022/09/23 10:06:19;;;;;;;;;;;;;;;15.46;72.39;101602.69;5096398;28;19966;-34
2022/09/23 10:09:03;;;;;;;;;;;;;;;15.51;72.36;101602.78;5097539;28;20069;-34
2022/09/23 10:11:29;;;;;;;;;;;;;;;15.58;73.17;101605.34;5097363;28;20271;-34
2022/09/23 10:14:05;;;;;;;;;;;;;;;15.64;74.11;101597.03;5097147;28;20332;-34
2022/09/23 10:16:31;;;;;;;;;;;;;;;15.73;71.48;101585.75;5096562;28;19924;-34
2022/09/23 10:18:58;;;;;;;;;;;;;;;15.81;71.75;101586.16;5097234;28;19916;-35
2022/09/23 10:21:24;;;;;;;;;;;;;;;15.92;72.12;101587.16;5096431;28;20295;-34
2022/09/23 10:23:54;;;;;;;;;;;;;;;16.01;71.49;101587.56;5096512;28;19973;-35
2022/09/23 10:26:32;;;;;;;;;;;;;;;16.09;71.47;101579.75;5096318;28;19924;-35
2022/09/23 10:29:00;;;;;;;;;;;;;;;16.17;69.95;101589.44;5096913;28;20008;-35
2022/09/23 10:31:33;;;;;;;;;;;;;;;16.26;71.18;101589.84;5096262;28;19916;-34
2022/09/23 10:34:01;;;;;;;;;;;;;;;16.29;68.88;101579.22;5096207;28;19999;-34
2022/09/23 10:36:27;;;;;;;;;;;;;;;16.32;68.84;101575.19;5097143;28;19994;-34
2022/09/23 10:47:48;;;;;;;;;;;;;;;16.46;67.88;101576.47;5095762;28;19923;-34
2022/09/23 10:50:23;;;;;;;;;;;;;;;16.50;68.37;101579.53;5095896;28;19955;-34
2022/09/23 10:52:55;;;;;;;;;;;;;;;16.54;67.25;101586.94;5095924;28;19924;-35
2022/09/23 10:55:20;;;;;;;;;;;;;;;16.56;67.23;101579.34;5096133;28;19926;-34
2022/09/23 10:57:45;;;;;;;;;;;;;;;16.54;65.82;101575.19;5096844;28;20015;-35
2022/09/23 11:00:25;;;;;;;;;;;;;;;16.54;67.06;101569.75;5095369;28;20019;-35
2022/09/23 11:03:00;;;;;;;;;;;;;;;16.54;64.05;101569.75;5096014;28;20380;-34
2022/09/23 11:05:44;;;;;;;;;;;;;;;16.55;62.88;101566.78;5095389;28;19923;-34
2022/09/23 11:08:26;;;;;;;;;;;;;;;16.60;65.15;101572.31;5095318;28;19916;-34
2022/09/23 11:10:54;;;;;;;;;;;;;;;16.65;66.23;101577.00;5096063;28;19916;-35
2022/09/23 11:13:19;;;;;;;;;;;;;;;16.69;64.51;101573.50;5095766;28;19916;-34
2022/09/23 11:16:03;;;;;;;;;;;;;;;16.76;65.44;101575.25;5095332;28;20379;-35
2022/09/23 11:18:34;;;;;;;;;;;;;;;16.83;65.19;101567.69;5095893;28;19916;-34
2022/09/23 11:21:10;;;;;;;;;;;;;;;16.89;65.28;101566.69;5095341;28;19938;-34
2022/09/23 11:23:54;;;;;;;;;;;;;;;16.94;65.23;101562.09;5096134;28;19916;-34
2022/09/23 11:26:19;;;;;;;;;;;;;;;16.98;65.18;101555.03;5094983;28;19916;-35
2022/09/23 11:29:02;;;;;;;;;;;;;;;17.04;61.73;101555.91;5095529;28;19916;-34
2022/09/23 11:32:03;;;;;;;;;;;;;;;17.12;63.34;101554.63;5095186;28;19923;-34
2022/09/23 11:34:45;;;;;;;;;;;;;;;17.21;63.08;101553.06;5032603;28;19921;-35
2022/09/23 11:37:13;;;;;;;;;;;;;;;17.29;63.32;101551.78;5032751;28;19917;-35
2022/09/23 11:39:44;;;;;;;;;;;;;;;17.34;62.92;101557.31;5032403;28;19917;-35
2022/09/23 11:42:18;;;;;;;;;;;;;;;17.36;61.67;101541.47;5032412;28;19960;-35
2022/09/23 11:44:48;;;;;;;;;;;;;;;17.40;59.89;101550.81;5033131;28;19917;-36
2022/09/23 11:47:18;;;;;;;;;;;;;;;17.45;59.71;101548.94;5033103;28;20357;-35
2022/09/23 11:49:50;;;;;;;;;;;;;;;17.49;61.65;101544.59;5032456;28;20036;-35
2022/09/23 11:52:18;;;;;;;;;;;;;;;17.54;60.64;101541.09;5032257;28;19967;-35
2022/09/23 11:54:58;;;;;;;;;;;;;;;17.59;59.14;101538.38;5032980;28;20103;-35
2022/09/23 11:57:46;;;;;;;;;;;;;;;17.61;58.33;101538.94;5032044;28;19917;-35
2022/09/23 12:00:15;;;;;;;;;;;;;;;17.64;61.13;101538.44;5031866;28;19929;-35
2022/09/23 12:02:55;;;;;;;;;;;;;;;17.68;59.66;101534.09;5032804;28;19936;-35
2022/09/23 12:05:26;;;;;;;;;;;;;;;17.71;58.85;101532.72;5032002;28;19925;-35
2022/09/23 12:08:00;;;;;;;;;;;;;;;17.72;58.04;101528.94;5049167;28;19916;-35
2022/09/23 12:10:33;;;;;;;;;;;;;;;17.72;59.24;101531.66;5095117;28;20277;-35
2022/09/23 12:13:03;;;;;;;;;;;;;;;17.69;58.56;101526.72;5094275;28;19922;-35
2022/09/23 12:15:41;;;;;;;;;;;;;;;17.69;57.71;101527.53;5094701;28;19923;-35
2022/09/23 12:18:08;;;;;;;;;;;;;;;17.69;58.74;101533.00;5094205;28;19924;-35
2022/09/23 12:20:44;;;;;;;;;;;;;;;17.73;59.72;101527.88;5094265;28;19923;-35
2022/09/23 12:23:12;;;;;;;;;;;;;;;17.77;58.48;101523.53;5094862;28;19923;-35
2022/09/23 12:25:45;;;;;;;;;;;;;;;17.75;58.99;101529.25;5094040;28;19930;-35
2022/09/23 12:28:23;;;;;;;;;;;;;;;17.71;58.39;101525.38;5094543;28;19916;-35
2022/09/23 12:30:50;;;;;;;;;;;;;;;17.71;59.04;101519.91;5094489;28;19916;-36
2022/09/23 12:33:15;;;;;;;;;;;;;;;17.69;58.62;101522.06;5076792;28;20273;-35
2022/09/23 12:35:43;;;;;;;;;;;;;;;17.69;60.07;101516.59;5094674;28;19916;-35
2022/09/23 12:38:19;;;;;;;;;;;;;;;17.67;60.16;101515.22;5094117;28;19969;-35
2022/09/23 12:40:44;;;;;;;;;;;;;;;17.67;60.70;101516.03;5094333;28;19916;-36
2022/09/23 12:43:17;;;;;;;;;;;;;;;17.70;60.99;101518.22;5094992;28;19923;-35
2022/09/23 12:45:42;;;;;;;;;;;;;;;17.72;60.83;101512.53;5093693;28;20329;-35
2022/09/23 12:48:16;;;;;;;;;;;;;;;17.73;59.73;101514.19;5094441;28;20007;-35
2022/09/23 12:50:44;;;;;;;;;;;;;;;17.76;59.49;101513.66;5093554;28;19917;-35
2022/09/23 12:53:51;;;;;;;;;;;;;;;17.75;58.88;101515.56;5094628;28;20387;-35
2022/09/23 12:56:19;;;;;;;;;;;;;;;17.79;60.53;101512.31;5031354;28;19945;-35
2022/09/23 12:58:47;;;;;;;;;;;;;;;17.84;59.77;101506.88;5031337;28;19921;-35
2022/09/23 13:01:19;;;;;;;;;;;;;;;17.87;59.43;101506.34;5031355;28;20396;-35